Smiths Bend, Texas
Current Conditions -  °F | °C
As of 5:51 AM on Wednesday 26 Nov 2014 (Local Time) from KACT Reporting Station
Clear Clear  
Wind Chill: 34°   Ceiling: Unl
Heat Index: 40°   Visibility: 10mi
Dew Point: 31°   Wind: 9mph
Humidity: 70%   Direction: 200°SSW
Pressure: 30.11"   Gusts: NA
Location:  31.7854°N, 97.5786°W
Report Text: KACT 261151Z 20008KT 10SM CLR 04/M01 A3011 RMK AO2 SLP196 T00441006 10061 20033 53002
Loading
Personal Weather Stations






























Interactive Weather Map New forecast layout! Learn more

10-Day Weather Forecast

Advertisements
Track Severe Weather on mobile